Terminal Aerodrome Forecast
Issued by NWS

Home | Current Version | Previous Version | Text Only | Print | Product List | Glossary On
Versions: 1 2 3 4 5 6 7 8 9 10 11 12 13
000
FTAK31 PAFA 231134
TAFAOM
TAF
PAOM 231134Z 2312/2412 04008KT P6SM VCSH SCT035 BKN050 OVC100
     FM231800 04010KT P6SM SCT050 BKN100 BKN200
     FM240000 05015KT P6SM SCT100 BKN200=

USA.gov is the U.S. government's official web portal to all federal, state and local government web resources and services.